createdAt,value
2023-05-05T00:02:18.934Z,100810.44
2023-05-05T00:04:47.410Z,100809.59
2023-05-05T00:07:15.273Z,100800.06
2023-05-05T00:09:44.536Z,100800.13
2023-05-05T00:12:12.327Z,100801.53
2023-05-05T00:14:40.269Z,100802.50
2023-05-05T00:17:09.584Z,100792.94
2023-05-05T00:19:37.658Z,100793.06
2023-05-05T00:22:06.009Z,100790.25
2023-05-05T00:24:33.938Z,100785.22
2023-05-05T00:27:02.145Z,100787.06
2023-05-05T00:29:30.049Z,100791.16
2023-05-05T00:31:57.987Z,100783.53
2023-05-05T00:34:27.346Z,100783.38
2023-05-05T00:36:55.342Z,100774.59
2023-05-05T00:39:23.466Z,100780.97
2023-05-05T00:41:51.629Z,100778.75
2023-05-05T00:44:19.526Z,100781.22
2023-05-05T00:46:47.546Z,100774.09
2023-05-05T00:49:16.351Z,100768.78
2023-05-05T00:51:45.701Z,100776.44
2023-05-05T00:54:13.638Z,100778.97
2023-05-05T00:56:41.950Z,100770.13
2023-05-05T00:59:09.957Z,100774.47
2023-05-05T01:01:37.859Z,100788.78
2023-05-05T01:04:05.861Z,100786.25
2023-05-05T01:06:48.508Z,100791.47
2023-05-05T01:09:27.441Z,100782.34
2023-05-05T01:12:03.662Z,100789.13
2023-05-05T01:14:40.841Z,100801.41
2023-05-05T01:17:17.422Z,100795.16
2023-05-05T01:20:02.208Z,100791.56
2023-05-05T01:22:37.485Z,100802.47
2023-05-05T01:25:32.054Z,100792.50
2023-05-05T01:28:25.430Z,100794.53
2023-05-05T01:31:10.026Z,100799.28
2023-05-05T01:33:46.935Z,100800.00
2023-05-05T01:36:23.546Z,100804.66
2023-05-05T01:38:57.320Z,100805.97
2023-05-05T01:41:29.627Z,100808.72
2023-05-05T01:44:01.462Z,100801.69
2023-05-05T01:46:30.622Z,100807.63
2023-05-05T01:49:00.198Z,100807.63
2023-05-05T01:51:29.374Z,100802.41
2023-05-05T01:54:00.013Z,100803.31
2023-05-05T01:56:29.385Z,100815.75
2023-05-05T01:58:58.109Z,100816.06
2023-05-05T02:01:27.978Z,100817.03
2023-05-05T02:03:57.430Z,100825.16
2023-05-05T02:06:30.345Z,100820.19
2023-05-05T02:08:59.407Z,100823.84
2023-05-05T02:11:29.087Z,100826.59
2023-05-05T02:13:59.927Z,100823.25
2023-05-05T02:16:31.123Z,100829.44
2023-05-05T02:19:04.706Z,100834.88
2023-05-05T02:21:34.873Z,100829.28
2023-05-05T02:24:04.604Z,100820.66
2023-05-05T02:26:37.151Z,100824.19
2023-05-05T02:29:08.436Z,100825.00
2023-05-05T02:31:41.135Z,100826.66
2023-05-05T02:34:09.889Z,100831.91
2023-05-05T02:36:42.381Z,100832.97
2023-05-05T02:39:15.491Z,100828.47
2023-05-05T02:41:47.563Z,100837.25
2023-05-05T02:44:25.839Z,100844.50
2023-05-05T02:46:55.528Z,100848.97
2023-05-05T02:49:24.787Z,100846.50
2023-05-05T02:51:59.374Z,100846.69
2023-05-05T02:54:32.733Z,100841.91
2023-05-05T02:57:02.805Z,100841.00
2023-05-05T02:59:42.527Z,100843.72
2023-05-05T03:02:18.663Z,100845.53
2023-05-05T03:04:50.361Z,100855.44
2023-05-05T03:07:26.251Z,100855.53
2023-05-05T03:10:04.306Z,100859.19
2023-05-05T03:12:40.021Z,100853.38
2023-05-05T03:15:17.017Z,100861.50
2023-05-05T03:17:46.350Z,100860.47
2023-05-05T03:20:16.076Z,100861.06
2023-05-05T03:22:49.518Z,100851.63
2023-05-05T03:25:17.716Z,100848.19
2023-05-05T03:27:45.723Z,100856.00
2023-05-05T03:30:16.411Z,100854.25
2023-05-05T03:32:50.066Z,100864.69
2023-05-05T03:35:18.562Z,100867.47
2023-05-05T03:37:46.561Z,100863.19
2023-05-05T03:40:19.162Z,100861.59
2023-05-05T03:42:47.301Z,100863.38
2023-05-05T03:45:15.269Z,100865.31
2023-05-05T03:47:43.226Z,100872.66
2023-05-05T03:50:11.858Z,100872.84
2023-05-05T03:52:40.804Z,100870.34
2023-05-05T03:55:10.576Z,100879.03
2023-05-05T03:57:39.846Z,100864.09
2023-05-05T04:00:10.801Z,100870.97
2023-05-05T04:02:42.429Z,100870.81
2023-05-05T04:05:13.231Z,100875.25
2023-05-05T04:07:41.268Z,100855.66
2023-05-05T04:10:10.329Z,100869.41
2023-05-05T04:12:40.383Z,100875.53
2023-05-05T04:15:09.356Z,100878.00
2023-05-05T04:17:37.952Z,100879.69
2023-05-05T04:20:07.413Z,100879.53
2023-05-05T04:22:35.494Z,100890.34
2023-05-05T04:25:03.664Z,100893.78
2023-05-05T04:27:31.593Z,100890.34
2023-05-05T04:30:02.493Z,100894.63
2023-05-05T04:32:32.533Z,100893.50
2023-05-05T04:35:00.855Z,100894.81
2023-05-05T04:37:29.170Z,100895.31
2023-05-05T04:39:59.640Z,100901.22
2023-05-05T04:42:28.378Z,100898.09
2023-05-05T04:44:56.548Z,100901.31
2023-05-05T04:47:26.295Z,100907.50
2023-05-05T04:49:55.990Z,100905.81
2023-05-05T04:52:24.153Z,100901.94
2023-05-05T04:54:52.763Z,100908.44
2023-05-05T04:57:20.752Z,100905.34
2023-05-05T04:59:48.639Z,100905.06
2023-05-05T05:02:16.473Z,100905.31
2023-05-05T05:04:45.762Z,100903.28
2023-05-05T05:07:14.975Z,100907.78
2023-05-05T05:09:42.930Z,100917.91
2023-05-05T05:12:10.811Z,100918.56
2023-05-05T05:14:39.056Z,100916.06
2023-05-05T05:17:07.105Z,100921.56
2023-05-05T05:19:35.655Z,100918.94
2023-05-05T05:22:05.220Z,100916.75
2023-05-05T05:24:36.449Z,100922.16
2023-05-05T05:27:09.828Z,100926.63
2023-05-05T05:29:38.958Z,100934.72
2023-05-05T05:32:07.098Z,100935.88
2023-05-05T05:34:35.845Z,100935.19
2023-05-05T05:37:06.472Z,100930.84
2023-05-05T05:39:34.601Z,100926.09
2023-05-05T05:42:03.579Z,100929.38
2023-05-05T05:44:32.721Z,100929.59
2023-05-05T05:47:00.613Z,100933.03
2023-05-05T05:49:29.083Z,100931.69
2023-05-05T05:51:57.174Z,100930.78
2023-05-05T05:54:26.763Z,100933.31
2023-05-05T05:56:54.689Z,100931.25
2023-05-05T05:59:22.913Z,100932.44
2023-05-05T06:01:50.918Z,100929.00
2023-05-05T06:04:18.815Z,100930.66
2023-05-05T06:06:46.832Z,100936.94
2023-05-05T06:09:14.987Z,100933.50
2023-05-05T06:11:44.713Z,100934.72
2023-05-05T06:14:12.712Z,100938.47
2023-05-05T06:16:40.630Z,100945.09
2023-05-05T06:19:12.656Z,100943.59
2023-05-05T06:21:40.813Z,100943.13
2023-05-05T06:24:08.817Z,100949.00
2023-05-05T06:26:36.998Z,100949.75
2023-05-05T06:29:06.674Z,100952.88
2023-05-05T06:31:34.604Z,100948.59
2023-05-05T06:34:02.930Z,100950.75
2023-05-05T06:36:31.995Z,100948.63
2023-05-05T06:38:59.954Z,100945.50
2023-05-05T06:41:27.821Z,100962.13
2023-05-05T06:43:55.648Z,100960.00
2023-05-05T06:46:24.981Z,100963.28
2023-05-05T06:48:52.990Z,100960.75
2023-05-05T06:51:20.941Z,100959.56
2023-05-05T06:53:48.915Z,100955.13
2023-05-05T06:56:17.162Z,100958.88
2023-05-05T06:58:45.056Z,100955.53
2023-05-05T07:01:13.218Z,100953.03
2023-05-05T07:03:42.644Z,100956.66
2023-05-05T07:06:11.311Z,100954.66
2023-05-05T07:08:39.235Z,100953.84
2023-05-05T07:11:07.188Z,100956.28
2023-05-05T07:13:35.114Z,100958.84
2023-05-05T07:16:03.617Z,100971.63
2023-05-05T07:18:31.486Z,100967.91
2023-05-05T07:21:01.376Z,100970.25
2023-05-05T07:23:29.295Z,100973.47
2023-05-05T07:25:57.190Z,100975.44
2023-05-05T07:28:25.225Z,100981.19
2023-05-05T07:30:53.226Z,100984.19
2023-05-05T07:33:21.270Z,100980.75
2023-05-05T07:35:49.234Z,100973.94
2023-05-05T07:38:18.525Z,100986.84
2023-05-05T07:40:46.539Z,100982.44
2023-05-05T07:43:14.436Z,100976.47
2023-05-05T07:45:42.559Z,100976.13
2023-05-05T07:48:10.852Z,100977.22
2023-05-05T07:50:38.914Z,100975.91
2023-05-05T07:53:14.378Z,100982.72
2023-05-05T07:55:44.399Z,100977.69
2023-05-05T07:58:12.385Z,100975.69
2023-05-05T08:00:40.913Z,100981.00
2023-05-05T08:03:11.373Z,100975.03
2023-05-05T08:05:40.643Z,100973.53
2023-05-05T08:08:08.708Z,100968.22
2023-05-05T08:10:37.246Z,100971.56
2023-05-05T08:13:06.719Z,100972.69
2023-05-05T08:15:34.736Z,100976.75
2023-05-05T08:18:02.629Z,100981.16
2023-05-05T08:20:30.883Z,100968.00
2023-05-05T08:22:58.718Z,100980.69
2023-05-05T08:25:27.456Z,100977.44
2023-05-05T08:27:55.666Z,100972.75
2023-05-05T08:30:25.010Z,100980.91
2023-05-05T08:32:53.019Z,100977.50
2023-05-05T08:35:21.015Z,100985.41
2023-05-05T08:37:49.046Z,100983.88
2023-05-05T08:40:16.967Z,100979.63
2023-05-05T08:42:46.361Z,100978.16
2023-05-05T08:45:14.350Z,100973.13
2023-05-05T08:47:44.186Z,100971.16
2023-05-05T08:50:13.158Z,100970.38
2023-05-05T08:52:44.106Z,100973.69
2023-05-05T08:55:19.076Z,100968.06
2023-05-05T08:57:51.547Z,100982.97
2023-05-05T09:00:20.791Z,100984.88
2023-05-05T09:02:50.305Z,100975.38
2023-05-05T09:05:19.281Z,100973.09
2023-05-05T09:07:47.625Z,100980.69
2023-05-05T09:10:16.009Z,100975.63
2023-05-05T09:12:44.318Z,100980.72
2023-05-05T09:15:14.030Z,100975.84
2023-05-05T09:17:43.059Z,100980.53
2023-05-05T09:20:14.599Z,100986.00
2023-05-05T09:22:44.135Z,100987.44
2023-05-05T09:25:13.956Z,100992.00
2023-05-05T09:27:43.769Z,100991.50
2023-05-05T09:30:13.132Z,100980.81
2023-05-05T09:32:46.125Z,100988.50
2023-05-05T09:35:16.249Z,100978.88
2023-05-05T09:37:44.584Z,100980.63
2023-05-05T09:40:14.825Z,100977.53
2023-05-05T09:42:44.323Z,100966.50
2023-05-05T09:45:27.965Z,100947.22
2023-05-05T09:47:59.587Z,100958.38
2023-05-05T09:50:32.621Z,100962.03
2023-05-05T09:53:02.486Z,100966.66
2023-05-05T09:55:31.941Z,100967.19
2023-05-05T09:58:18.436Z,100964.50
2023-05-05T10:00:47.502Z,100965.31
2023-05-05T10:03:15.381Z,100968.69
2023-05-05T10:05:51.693Z,100955.22
2023-05-05T10:08:21.961Z,100954.53
2023-05-05T10:10:54.516Z,100949.88
2023-05-05T10:13:24.033Z,100946.06
2023-05-05T10:15:53.365Z,100943.38
2023-05-05T10:18:23.236Z,100939.69
2023-05-05T10:20:58.714Z,100934.84
2023-05-05T10:23:31.625Z,100946.13
2023-05-05T10:26:03.663Z,100940.81
2023-05-05T10:28:35.267Z,100930.19
2023-05-05T10:31:12.796Z,100919.53
2023-05-05T10:33:54.303Z,100934.59
2023-05-05T10:36:24.302Z,100916.81
2023-05-05T10:38:56.268Z,100908.03
2023-05-05T10:41:25.781Z,100915.66
2023-05-05T10:43:56.444Z,100916.91
2023-05-05T10:46:25.302Z,100909.47
2023-05-05T10:49:01.185Z,100917.22
2023-05-05T10:51:42.096Z,100907.59
2023-05-05T10:54:17.011Z,100904.72
2023-05-05T10:56:45.086Z,100902.44
2023-05-05T10:59:42.365Z,100903.56
2023-05-05T11:02:24.542Z,100885.97
2023-05-05T11:05:10.224Z,100878.31
2023-05-05T11:07:39.771Z,100870.63
2023-05-05T11:10:09.009Z,100862.81
2023-05-05T11:13:10.397Z,100867.00
2023-05-05T11:15:38.856Z,100864.16
2023-05-05T11:18:08.184Z,100874.22
2023-05-05T11:21:24.948Z,100883.53
2023-05-05T11:23:54.186Z,100887.94
2023-05-05T11:26:52.411Z,100892.41
2023-05-05T11:29:20.328Z,100890.59
2023-05-05T11:32:15.574Z,100936.72
2023-05-05T11:34:50.782Z,100966.56
2023-05-05T11:37:18.778Z,100962.47
2023-05-05T11:40:01.390Z,100978.97
2023-05-05T11:42:30.318Z,100984.22
2023-05-05T11:44:58.850Z,100983.53
2023-05-05T11:47:29.404Z,100982.63
2023-05-05T11:49:57.588Z,100981.44
2023-05-05T11:52:27.562Z,100977.34
2023-05-05T11:55:02.104Z,100960.75
2023-05-05T11:57:31.091Z,100957.72
2023-05-05T12:00:01.592Z,100956.44
2023-05-05T12:02:32.825Z,100945.09
2023-05-05T12:05:01.805Z,100925.78
2023-05-05T12:07:32.156Z,100937.69
2023-05-05T12:10:01.955Z,100936.25
2023-05-05T12:12:37.913Z,100936.41
2023-05-05T12:15:07.042Z,100939.28
2023-05-05T12:17:41.145Z,100943.53
2023-05-05T12:20:11.003Z,100932.78
2023-05-05T12:22:39.659Z,100938.94
2023-05-05T12:25:09.953Z,100954.41
2023-05-05T12:27:38.604Z,100941.75
2023-05-05T12:30:15.533Z,100959.84
2023-05-05T12:32:44.109Z,100956.31
2023-05-05T12:35:13.595Z,100957.81
2023-05-05T12:37:42.131Z,100955.81
2023-05-05T12:40:48.198Z,100951.28
2023-05-05T12:43:29.605Z,100955.13
2023-05-05T12:46:05.465Z,100952.63
2023-05-05T12:48:33.819Z,100946.75
2023-05-05T12:51:15.379Z,100949.69
2023-05-05T12:53:43.426Z,100941.38
2023-05-05T12:56:32.277Z,100945.06
2023-05-05T12:59:00.863Z,100943.91
2023-05-05T13:01:29.055Z,100943.75
2023-05-05T13:04:07.917Z,100945.97
2023-05-05T13:06:36.071Z,100949.81
2023-05-05T13:09:04.072Z,100942.69
2023-05-05T13:11:35.982Z,100943.97
2023-05-05T13:14:04.032Z,100939.00
2023-05-05T13:16:32.079Z,100941.03
2023-05-05T13:18:59.887Z,100933.47
2023-05-05T13:21:28.045Z,100935.53
2023-05-05T13:24:04.926Z,100931.38
2023-05-05T13:26:41.567Z,100935.91
2023-05-05T13:29:09.415Z,100937.94
2023-05-05T13:31:37.280Z,100933.34
2023-05-05T13:34:05.082Z,100940.34
2023-05-05T13:36:33.025Z,100931.13
2023-05-05T13:39:00.985Z,100928.00
2023-05-05T13:41:28.977Z,100929.34
2023-05-05T13:43:58.187Z,100914.84
2023-05-05T13:46:26.046Z,100916.91
2023-05-05T13:48:56.642Z,100905.81
2023-05-05T13:51:24.861Z,100910.03
2023-05-05T13:53:53.039Z,100897.47
2023-05-05T13:56:23.396Z,100902.81
2023-05-05T13:58:51.239Z,100898.13
2023-05-05T14:01:20.452Z,100894.72
2023-05-05T14:03:48.296Z,100888.94
2023-05-05T14:06:16.398Z,100881.91
2023-05-05T14:08:44.419Z,100895.09
2023-05-05T14:11:13.702Z,100888.66
2023-05-05T14:13:41.622Z,100889.34
2023-05-05T14:16:09.468Z,100879.72
2023-05-05T14:18:38.829Z,100896.16
2023-05-05T14:21:06.650Z,100888.47
2023-05-05T14:23:34.550Z,100885.34
2023-05-05T14:26:02.612Z,100880.00
2023-05-05T14:28:30.670Z,100892.44
2023-05-05T14:30:58.630Z,100881.94
2023-05-05T14:33:26.581Z,100886.31
2023-05-05T14:35:56.636Z,100880.84
2023-05-05T14:38:24.780Z,100872.88
2023-05-05T14:40:52.708Z,100865.63
2023-05-05T14:43:20.738Z,100869.31
2023-05-05T14:45:48.684Z,100867.28
2023-05-05T14:48:16.667Z,100859.31
2023-05-05T14:50:46.362Z,100858.91
2023-05-05T14:53:15.716Z,100864.13
2023-05-05T14:55:44.436Z,100870.88
2023-05-05T14:58:12.394Z,100874.03
2023-05-05T15:00:40.246Z,100869.66
2023-05-05T15:03:08.325Z,100873.13
2023-05-05T15:05:36.390Z,100875.50
2023-05-05T15:08:04.277Z,100871.56
2023-05-05T15:10:33.497Z,100878.66
2023-05-05T15:13:01.350Z,100881.94
2023-05-05T15:15:29.268Z,100878.78
2023-05-05T15:17:57.182Z,100879.22
2023-05-05T15:20:25.145Z,100881.53
2023-05-05T15:22:52.938Z,100887.19
2023-05-05T15:25:21.027Z,100889.84
2023-05-05T15:27:50.539Z,100871.88
2023-05-05T15:30:18.487Z,100871.97
2023-05-05T15:32:46.387Z,100879.16
2023-05-05T15:35:14.275Z,100880.47
2023-05-05T15:37:42.488Z,100875.16
2023-05-05T15:40:11.216Z,100880.56
2023-05-05T15:42:39.080Z,100890.13
2023-05-05T15:45:12.021Z,100911.38
2023-05-05T15:47:39.879Z,100927.53
2023-05-05T15:50:08.780Z,100945.84
2023-05-05T15:52:36.600Z,100936.94
2023-05-05T15:55:04.771Z,100938.59
2023-05-05T15:57:32.631Z,100934.22
2023-05-05T16:00:01.118Z,100930.66
2023-05-05T16:02:30.445Z,100950.28
2023-05-05T16:04:58.274Z,100940.88
2023-05-05T16:07:26.909Z,100951.13
2023-05-05T16:09:55.028Z,100942.16
2023-05-05T16:12:22.947Z,100958.38
2023-05-05T16:14:50.939Z,100955.75
2023-05-05T16:17:20.343Z,100947.50
2023-05-05T16:19:50.941Z,100960.78
2023-05-05T16:22:20.747Z,100955.13
2023-05-05T16:24:48.778Z,100952.47
2023-05-05T16:27:16.894Z,100924.22
2023-05-05T16:29:44.728Z,100920.63
2023-05-05T16:32:12.589Z,100913.97
2023-05-05T16:34:40.584Z,100915.91
2023-05-05T16:37:09.797Z,100911.75
2023-05-05T16:39:40.813Z,100914.03
2023-05-05T16:42:08.844Z,100908.16
2023-05-05T16:44:36.726Z,100905.00
2023-05-05T16:47:04.620Z,100916.22
2023-05-05T16:49:32.533Z,100915.13
2023-05-05T16:52:00.572Z,100917.59
2023-05-05T16:54:29.905Z,100917.66
2023-05-05T16:56:58.161Z,100905.97
2023-05-05T16:59:26.156Z,100904.94
2023-05-05T17:01:54.024Z,100900.88
2023-05-05T17:04:21.863Z,100902.72
2023-05-05T17:06:49.675Z,100894.78
2023-05-05T17:09:17.532Z,100901.16
2023-05-05T17:11:46.700Z,100907.72
2023-05-05T17:14:14.682Z,100897.53
2023-05-05T17:16:42.600Z,100904.50
2023-05-05T17:19:10.512Z,100904.75
2023-05-05T17:21:38.361Z,100906.06
2023-05-05T17:24:08.478Z,100899.78
2023-05-05T17:26:36.746Z,100898.38
2023-05-05T17:29:06.286Z,100904.91
2023-05-05T17:31:34.352Z,100905.00
2023-05-05T17:34:02.498Z,100907.31
2023-05-05T17:36:30.548Z,100904.94
2023-05-05T17:38:58.369Z,100904.53
2023-05-05T17:41:27.281Z,100907.31
2023-05-05T17:43:55.803Z,100907.00
2023-05-05T17:46:25.159Z,100906.97
2023-05-05T17:48:53.232Z,100910.91
2023-05-05T17:51:21.262Z,100908.19
2023-05-05T17:53:49.149Z,100903.28
2023-05-05T17:56:17.131Z,100913.81
2023-05-05T17:58:44.959Z,100919.25
2023-05-05T18:01:22.135Z,100927.50
2023-05-05T18:03:51.436Z,100923.09
2023-05-05T18:06:19.577Z,100933.88
2023-05-05T18:08:47.632Z,100927.59
2023-05-05T18:11:15.638Z,100927.88
2023-05-05T18:13:43.826Z,100936.22
2023-05-05T18:16:11.650Z,100933.28
2023-05-05T18:18:40.535Z,100934.69
2023-05-05T18:21:12.047Z,100937.25
2023-05-05T18:23:40.155Z,100949.78
2023-05-05T18:26:08.671Z,100947.84
2023-05-05T18:28:38.090Z,100965.91
2023-05-05T18:31:06.195Z,100966.25
2023-05-05T18:33:34.180Z,100978.34
2023-05-05T18:36:03.616Z,100986.06
2023-05-05T18:38:33.474Z,100985.53
2023-05-05T18:41:01.407Z,100982.25
2023-05-05T18:43:29.632Z,100975.41
2023-05-05T18:45:57.506Z,100979.97
2023-05-05T18:48:26.168Z,100981.69
2023-05-05T18:50:54.004Z,100983.47
2023-05-05T18:53:22.279Z,100990.44
2023-05-05T18:55:51.501Z,100985.91
2023-05-05T18:58:19.371Z,100985.34
2023-05-05T19:00:47.237Z,100986.50
2023-05-05T19:03:15.113Z,100985.09
2023-05-05T19:05:42.984Z,100983.44
2023-05-05T19:08:11.097Z,100991.78
2023-05-05T19:10:39.087Z,100994.44
2023-05-05T19:13:09.241Z,100996.38
2023-05-05T19:15:37.087Z,100989.47
2023-05-05T19:18:06.425Z,100993.09
2023-05-05T19:20:34.451Z,100988.59
2023-05-05T19:23:04.451Z,100987.91
2023-05-05T19:25:32.653Z,101000.34
2023-05-05T19:28:00.666Z,100987.03
2023-05-05T19:30:30.017Z,100991.47
2023-05-05T19:32:57.964Z,100980.09
2023-05-05T19:35:26.108Z,100981.75
2023-05-05T19:37:53.962Z,100990.41
2023-05-05T19:40:22.417Z,100983.50
2023-05-05T19:42:50.311Z,100991.22
2023-05-05T19:45:18.483Z,100981.06
2023-05-05T19:47:48.109Z,100980.78
2023-05-05T19:50:16.652Z,100976.59
2023-05-05T19:52:44.557Z,100977.94
2023-05-05T19:55:13.237Z,100980.56
2023-05-05T19:57:41.728Z,100982.22
2023-05-05T20:00:11.854Z,100984.19
2023-05-05T20:02:39.896Z,100983.97
2023-05-05T20:05:13.758Z,100983.06
2023-05-05T20:07:42.769Z,100991.00
2023-05-05T20:10:13.017Z,100990.34
2023-05-05T20:12:47.855Z,100998.25
2023-05-05T20:15:18.680Z,101005.09
2023-05-05T20:17:47.836Z,101004.31
2023-05-05T20:20:20.072Z,101007.56
2023-05-05T20:22:48.586Z,101005.81
2023-05-05T20:25:16.900Z,101009.31
2023-05-05T20:27:45.949Z,101007.63
2023-05-05T20:30:14.440Z,101004.28
2023-05-05T20:32:42.455Z,101010.59
2023-05-05T20:35:12.754Z,101008.06
2023-05-05T20:37:42.234Z,101006.38
2023-05-05T20:40:11.472Z,101009.09
2023-05-05T20:42:39.592Z,101006.31
2023-05-05T20:45:10.501Z,101007.28
2023-05-05T20:47:38.395Z,101010.84
2023-05-05T20:50:08.014Z,101016.19
2023-05-05T20:52:36.150Z,101010.25
2023-05-05T20:55:05.929Z,101006.09
2023-05-05T20:57:33.846Z,101006.19
2023-05-05T21:00:01.742Z,100999.25
2023-05-05T21:02:29.746Z,101008.81
2023-05-05T21:05:02.453Z,101009.06
2023-05-05T21:07:31.133Z,101002.38
2023-05-05T21:09:59.095Z,101003.31
2023-05-05T21:12:29.600Z,101005.88
2023-05-05T21:14:58.717Z,101007.78
2023-05-05T21:17:26.888Z,101001.72
2023-05-05T21:19:55.396Z,101012.16
2023-05-05T21:22:23.601Z,101006.03
2023-05-05T21:24:51.503Z,101004.34
2023-05-05T21:27:19.471Z,101012.22
2023-05-05T21:29:51.472Z,101003.47
2023-05-05T21:32:19.366Z,101007.03
2023-05-05T21:34:47.268Z,101010.53
2023-05-05T21:37:15.070Z,101006.03
2023-05-05T21:39:42.873Z,101007.84
2023-05-05T21:42:10.727Z,101014.00
2023-05-05T21:44:38.776Z,101020.19
2023-05-05T21:47:08.237Z,101024.66
2023-05-05T21:49:36.067Z,101022.19
2023-05-05T21:52:04.118Z,101019.50
2023-05-05T21:54:32.090Z,101015.09
2023-05-05T21:57:00.185Z,101017.84
2023-05-05T21:59:28.060Z,101025.66
2023-05-05T22:01:55.947Z,101025.59
2023-05-05T22:04:25.183Z,101021.28
2023-05-05T22:06:53.236Z,101023.94
2023-05-05T22:09:21.088Z,101012.53
2023-05-05T22:11:48.971Z,101026.47
2023-05-05T22:14:16.966Z,101016.84
2023-05-05T22:16:44.996Z,101020.19
2023-05-05T22:19:13.136Z,101015.03
2023-05-05T22:21:42.366Z,101014.22
2023-05-05T22:24:10.295Z,101016.03
2023-05-05T22:26:39.804Z,101014.31
2023-05-05T22:29:07.625Z,101022.97
2023-05-05T22:31:35.744Z,101026.41
2023-05-05T22:34:03.720Z,101023.84
2023-05-05T22:36:32.293Z,101029.06
2023-05-05T22:39:01.497Z,101022.19
2023-05-05T22:41:29.303Z,101030.03
2023-05-05T22:43:57.464Z,101030.88
2023-05-05T22:46:25.357Z,101030.06
2023-05-05T22:48:54.148Z,101031.91
2023-05-05T22:51:22.262Z,101037.13
2023-05-05T22:53:50.184Z,101037.22
2023-05-05T22:56:19.380Z,101029.34
2023-05-05T22:58:47.582Z,101031.09
2023-05-05T23:01:15.516Z,101030.25
2023-05-05T23:03:43.363Z,101027.66
2023-05-05T23:06:11.217Z,101024.22
2023-05-05T23:08:39.009Z,101029.59
2023-05-05T23:11:06.909Z,101019.16
2023-05-05T23:13:36.119Z,101023.59
2023-05-05T23:16:04.062Z,101012.44
2023-05-05T23:18:31.852Z,101009.09
2023-05-05T23:20:59.714Z,101014.38
2023-05-05T23:23:27.610Z,101014.31
2023-05-05T23:25:56.007Z,101010.91
2023-05-05T23:28:23.909Z,101014.47
2023-05-05T23:30:53.148Z,101011.84
2023-05-05T23:33:21.019Z,101012.84
2023-05-05T23:35:49.142Z,101008.34
2023-05-05T23:38:17.130Z,101016.31
2023-05-05T23:40:44.963Z,101011.19
2023-05-05T23:43:12.928Z,101012.19
2023-05-05T23:45:41.036Z,101012.13
2023-05-05T23:48:10.525Z,101013.13
2023-05-05T23:50:38.425Z,101007.88
2023-05-05T23:53:06.355Z,101011.38
2023-05-05T23:55:34.269Z,101013.19
2023-05-05T23:58:02.028Z,101011.38
